createdAt,value
2022-11-27T00:02:00.435Z,10.07
2022-11-27T00:04:45.675Z,9.77
2022-11-27T00:07:31.204Z,7.33
2022-11-27T00:10:16.474Z,9.83
2022-11-27T00:13:01.828Z,8.07
2022-11-27T00:15:47.339Z,8.87
2022-11-27T00:18:33.461Z,7.57
2022-11-27T00:21:25.636Z,9.87
2022-11-27T00:24:11.916Z,8.47
2022-11-27T00:26:57.440Z,7.10
2022-11-27T00:29:43.243Z,8.17
2022-11-27T00:32:28.804Z,6.90
2022-11-27T00:35:14.151Z,6.20
2022-11-27T00:37:59.560Z,8.73
2022-11-27T00:40:44.793Z,7.40
2022-11-27T00:43:30.196Z,8.13
2022-11-27T00:46:17.537Z,8.20
2022-11-27T00:49:05.546Z,8.23
2022-11-27T00:51:51.019Z,8.80
2022-11-27T00:54:36.532Z,6.30
2022-11-27T00:57:21.709Z,7.40
2022-11-27T01:00:07.906Z,6.23
2022-11-27T01:02:53.520Z,7.43
2022-11-27T01:05:38.620Z,6.60
2022-11-27T01:08:24.019Z,6.13
2022-11-27T01:11:14.832Z,6.80
2022-11-27T01:14:03.075Z,6.90
2022-11-27T01:16:48.262Z,9.10
2022-11-27T01:19:33.501Z,8.63
2022-11-27T01:22:18.936Z,7.63
2022-11-27T01:25:05.687Z,7.67
2022-11-27T01:27:50.947Z,8.17
2022-11-27T01:30:39.531Z,7.53
2022-11-27T01:33:25.507Z,7.40
2022-11-27T01:36:13.481Z,8.43
2022-11-27T01:39:00.115Z,6.10
2022-11-27T01:41:47.149Z,6.67
2022-11-27T01:44:32.204Z,10.30
2022-11-27T01:47:29.563Z,5.73
2022-11-27T01:50:27.143Z,6.50
2022-11-27T01:53:18.796Z,7.00
2022-11-27T01:56:05.561Z,6.43
2022-11-27T01:58:51.800Z,5.67
2022-11-27T02:01:37.255Z,6.17
2022-11-27T02:04:22.544Z,7.07
2022-11-27T02:07:07.818Z,5.93
2022-11-27T02:09:53.177Z,6.63
2022-11-27T02:12:56.570Z,6.23
2022-11-27T02:18:55.043Z,8.10
2022-11-27T02:22:09.972Z,5.37
2022-11-27T02:25:13.426Z,5.23
2022-11-27T02:28:08.166Z,6.18
2022-11-27T02:31:04.938Z,6.27
2022-11-27T02:33:55.909Z,6.80
2022-11-27T02:36:49.585Z,7.17
2022-11-27T02:39:41.105Z,7.45
2022-11-27T02:42:30.091Z,7.60
2022-11-27T02:45:22.487Z,6.10
2022-11-27T02:48:09.809Z,6.77
2022-11-27T02:50:56.126Z,6.13
2022-11-27T02:53:58.059Z,7.00
2022-11-27T02:56:45.148Z,7.90
2022-11-27T02:59:33.503Z,5.80
2022-11-27T03:02:26.859Z,6.77
2022-11-27T03:05:18.987Z,6.25
2022-11-27T03:08:14.089Z,5.10
2022-11-27T03:11:11.696Z,6.77
2022-11-27T03:14:00.789Z,5.90
2022-11-27T03:16:58.333Z,5.93
2022-11-27T03:19:54.761Z,5.97
2022-11-27T03:22:40.201Z,6.83
2022-11-27T03:25:25.811Z,6.03
2022-11-27T03:28:13.978Z,7.47
2022-11-27T03:30:59.622Z,5.50
2022-11-27T03:33:44.928Z,6.20
2022-11-27T03:36:30.140Z,7.23
2022-11-27T03:39:15.777Z,5.73
2022-11-27T03:42:28.821Z,6.27
2022-11-27T03:45:14.488Z,6.32
2022-11-27T03:48:21.428Z,5.90
2022-11-27T03:51:25.158Z,5.70
2022-11-27T03:54:25.817Z,5.05
2022-11-27T03:57:31.473Z,6.50
2022-11-27T04:00:17.466Z,6.50
2022-11-27T04:03:03.515Z,5.70
2022-11-27T04:05:49.057Z,5.80
2022-11-27T04:08:34.331Z,6.87
2022-11-27T04:11:19.812Z,5.27
2022-11-27T04:14:05.968Z,5.43
2022-11-27T04:16:51.424Z,6.00
2022-11-27T04:19:36.760Z,5.80
2022-11-27T04:22:21.917Z,7.70
2022-11-27T04:25:07.662Z,11.20
2022-11-27T04:27:52.979Z,7.13
2022-11-27T04:30:38.149Z,7.30
2022-11-27T04:33:23.519Z,7.77
2022-11-27T04:36:08.866Z,8.83
2022-11-27T04:38:54.129Z,7.83
2022-11-27T04:41:39.545Z,7.23
2022-11-27T04:44:24.787Z,8.30
2022-11-27T04:47:10.047Z,7.20
2022-11-27T04:49:55.267Z,7.53
2022-11-27T04:52:40.599Z,6.07
2022-11-27T04:55:25.927Z,7.57
2022-11-27T04:58:11.169Z,7.73
2022-11-27T05:00:56.361Z,6.43
2022-11-27T05:03:41.939Z,8.73
2022-11-27T05:06:27.329Z,5.70
2022-11-27T05:09:12.735Z,5.77
2022-11-27T05:11:58.050Z,4.63
2022-11-27T05:14:43.405Z,6.43
2022-11-27T05:17:28.565Z,6.10
2022-11-27T05:20:13.787Z,7.33
2022-11-27T05:22:59.312Z,5.60
2022-11-27T05:25:44.948Z,7.50
2022-11-27T05:28:30.086Z,6.53
2022-11-27T05:31:15.223Z,6.70
2022-11-27T05:34:00.784Z,5.97
2022-11-27T05:36:46.663Z,4.67
2022-11-27T05:39:32.239Z,6.57
2022-11-27T05:42:17.408Z,7.00
2022-11-27T05:45:04.681Z,9.20
2022-11-27T05:47:50.249Z,6.67
2022-11-27T05:50:35.466Z,6.40
2022-11-27T05:53:20.725Z,6.17
2022-11-27T05:56:12.176Z,5.30
2022-11-27T05:58:57.859Z,6.93
2022-11-27T06:01:43.643Z,5.93
2022-11-27T06:04:29.112Z,9.10
2022-11-27T06:07:14.796Z,5.87
2022-11-27T06:10:00.496Z,7.67
2022-11-27T06:12:46.526Z,6.13
2022-11-27T06:15:32.035Z,8.57
2022-11-27T06:18:17.930Z,6.67
2022-11-27T06:21:13.210Z,8.83
2022-11-27T06:23:58.309Z,7.97
2022-11-27T06:26:44.375Z,9.13
2022-11-27T06:29:31.440Z,7.20
2022-11-27T06:32:17.056Z,6.60
2022-11-27T06:35:02.629Z,6.97
2022-11-27T06:37:48.733Z,13.87
2022-11-27T06:40:34.496Z,6.13
2022-11-27T06:43:20.079Z,8.77
2022-11-27T06:46:07.543Z,8.87
2022-11-27T06:48:54.758Z,5.07
2022-11-27T06:51:40.268Z,5.73
2022-11-27T06:54:25.745Z,4.73
2022-11-27T06:57:11.459Z,4.80
2022-11-27T06:59:56.876Z,9.33
2022-11-27T07:02:42.241Z,6.30
2022-11-27T07:05:29.888Z,7.73
2022-11-27T07:08:15.616Z,4.60
2022-11-27T07:11:10.246Z,7.13
2022-11-27T07:13:57.672Z,4.23
2022-11-27T07:16:43.730Z,4.90
2022-11-27T07:19:29.192Z,6.53
2022-11-27T07:22:16.267Z,6.57
2022-11-27T07:25:01.890Z,4.83
2022-11-27T07:27:47.269Z,7.93
2022-11-27T07:30:32.559Z,6.27
2022-11-27T07:33:18.077Z,6.30
2022-11-27T07:36:10.966Z,4.50
2022-11-27T07:38:56.759Z,6.03
2022-11-27T07:41:42.337Z,4.23
2022-11-27T07:44:27.543Z,4.07
2022-11-27T07:47:12.895Z,4.83
2022-11-27T07:50:00.436Z,5.03
2022-11-27T07:52:46.044Z,3.37
2022-11-27T07:55:31.364Z,5.27
2022-11-27T07:58:16.756Z,4.90
2022-11-27T08:01:07.194Z,4.77
2022-11-27T08:03:52.476Z,4.17
2022-11-27T08:06:37.962Z,5.20
2022-11-27T08:09:23.373Z,4.73
2022-11-27T08:12:08.657Z,3.57
2022-11-27T08:14:53.935Z,6.00
2022-11-27T08:17:40.169Z,3.87
2022-11-27T08:20:26.343Z,4.63
2022-11-27T08:23:11.687Z,3.70
2022-11-27T08:25:56.996Z,4.10
2022-11-27T08:28:42.439Z,4.47
2022-11-27T08:31:27.851Z,3.73
2022-11-27T08:34:13.339Z,4.40
2022-11-27T08:36:58.552Z,3.90
2022-11-27T08:39:43.845Z,3.73
2022-11-27T08:42:29.074Z,5.47
2022-11-27T08:45:14.744Z,6.23
2022-11-27T08:48:00.336Z,5.77
2022-11-27T08:50:47.598Z,14.63
2022-11-27T08:53:33.487Z,7.50
2022-11-27T08:56:21.482Z,5.80
2022-11-27T08:59:06.755Z,6.10
2022-11-27T09:01:51.967Z,8.93
2022-11-27T09:04:37.271Z,6.43
2022-11-27T09:07:22.782Z,9.27
2022-11-27T09:10:09.018Z,5.30
2022-11-27T09:12:56.230Z,5.43
2022-11-27T09:15:41.578Z,5.53
2022-11-27T09:18:26.970Z,4.13
2022-11-27T09:21:14.531Z,7.90
2022-11-27T09:24:01.893Z,5.40
2022-11-27T09:26:47.212Z,5.40
2022-11-27T09:29:34.598Z,4.87
2022-11-27T09:32:22.056Z,4.17
2022-11-27T09:35:07.760Z,3.93
2022-11-27T09:37:52.951Z,7.17
2022-11-27T09:40:45.518Z,4.83
2022-11-27T09:43:36.734Z,6.63
2022-11-27T09:46:31.865Z,4.97
2022-11-27T09:49:29.346Z,5.40
2022-11-27T09:52:27.652Z,5.30
2022-11-27T09:55:24.305Z,4.77
2022-11-27T09:58:19.010Z,7.37
2022-11-27T10:01:35.321Z,7.50
2022-11-27T10:04:25.845Z,10.00
2022-11-27T10:07:26.442Z,5.27
2022-11-27T10:10:33.294Z,6.80
2022-11-27T10:13:40.633Z,5.80
2022-11-27T10:16:45.047Z,7.20
2022-11-27T10:19:48.552Z,5.07
2022-11-27T10:22:44.850Z,4.75
2022-11-27T10:25:56.770Z,5.30
2022-11-27T10:28:47.028Z,6.87
2022-11-27T10:31:38.675Z,5.90
2022-11-27T10:34:45.054Z,7.63
2022-11-27T10:37:43.294Z,4.63
2022-11-27T10:41:03.760Z,12.93
2022-11-27T10:43:55.362Z,4.07
2022-11-27T10:46:41.196Z,9.67
2022-11-27T10:49:26.890Z,5.67
2022-11-27T10:52:14.917Z,5.10
2022-11-27T10:55:04.690Z,4.97
2022-11-27T10:58:02.840Z,6.07
2022-11-27T11:00:48.574Z,6.57
2022-11-27T11:03:35.199Z,5.97
2022-11-27T11:06:26.768Z,7.30
2022-11-27T11:09:18.883Z,11.90
2022-11-27T11:12:21.540Z,5.90
2022-11-27T11:15:11.664Z,3.87
2022-11-27T11:17:57.160Z,5.70
2022-11-27T11:20:47.761Z,5.00
2022-11-27T11:23:35.953Z,9.53
2022-11-27T11:26:21.717Z,4.57
2022-11-27T11:29:39.271Z,4.97
2022-11-27T11:32:32.380Z,7.30
2022-11-27T11:35:32.171Z,6.63
2022-11-27T11:38:22.513Z,3.67
2022-11-27T11:41:08.056Z,7.13
2022-11-27T11:43:54.741Z,4.87
2022-11-27T11:46:40.525Z,5.37
2022-11-27T11:49:27.929Z,4.43
2022-11-27T11:52:22.319Z,6.63
2022-11-27T11:55:19.141Z,5.03
2022-11-27T11:58:29.559Z,4.33
2022-11-27T12:01:30.605Z,6.90
2022-11-27T12:04:28.301Z,5.50
2022-11-27T12:07:35.798Z,6.20
2022-11-27T12:10:21.351Z,4.90
2022-11-27T12:13:55.405Z,4.97
2022-11-27T12:17:02.801Z,5.93
2022-11-27T12:20:07.120Z,3.17
2022-11-27T12:23:14.943Z,4.27
2022-11-27T12:26:26.757Z,4.87
2022-11-27T12:29:29.864Z,3.37
2022-11-27T12:32:31.081Z,4.18
2022-11-27T12:35:34.638Z,5.33
2022-11-27T12:41:36.234Z,5.53
2022-11-27T12:44:49.184Z,3.70
2022-11-27T12:47:43.647Z,5.30
2022-11-27T12:51:01.592Z,6.43
2022-11-27T12:53:56.274Z,5.17
2022-11-27T12:56:58.016Z,4.13
2022-11-27T12:59:52.779Z,5.47
2022-11-27T13:02:46.563Z,5.07
2022-11-27T13:06:06.422Z,2.90
2022-11-27T13:09:02.660Z,3.77
2022-11-27T13:11:48.376Z,3.87
2022-11-27T13:14:38.602Z,3.57
2022-11-27T13:17:27.432Z,6.53
2022-11-27T13:20:18.058Z,4.73
2022-11-27T13:23:03.889Z,4.27
2022-11-27T13:25:54.861Z,6.50
2022-11-27T13:28:55.399Z,4.00
2022-11-27T13:31:44.047Z,4.53
2022-11-27T13:34:32.517Z,4.43
2022-11-27T13:37:40.222Z,5.20
2022-11-27T13:40:37.724Z,5.03
2022-11-27T13:43:32.661Z,5.00
2022-11-27T13:46:49.091Z,3.53
2022-11-27T13:49:37.998Z,4.20
2022-11-27T13:52:23.360Z,7.20
2022-11-27T13:55:09.956Z,4.60
2022-11-27T13:57:56.798Z,2.80
2022-11-27T14:00:44.929Z,3.43
2022-11-27T14:03:30.884Z,7.80
2022-11-27T14:06:16.326Z,8.70
2022-11-27T14:09:03.873Z,3.03
2022-11-27T14:11:50.985Z,6.07
2022-11-27T14:14:36.341Z,4.73
2022-11-27T14:17:36.817Z,4.13
2022-11-27T14:20:30.269Z,4.10
2022-11-27T14:23:34.195Z,5.60
2022-11-27T14:29:12.099Z,4.57
2022-11-27T14:32:02.290Z,4.63
2022-11-27T14:34:48.823Z,6.50
2022-11-27T14:37:34.304Z,3.90
2022-11-27T14:40:50.626Z,5.73
2022-11-27T14:43:36.164Z,5.10
2022-11-27T14:46:22.310Z,4.80
2022-11-27T14:49:20.374Z,6.80
2022-11-27T14:52:13.388Z,3.33
2022-11-27T14:55:00.629Z,3.90
2022-11-27T14:57:48.351Z,3.43
2022-11-27T15:00:33.781Z,2.87
2022-11-27T15:03:19.503Z,5.60
2022-11-27T15:06:07.760Z,4.20
2022-11-27T15:09:15.961Z,6.60
2022-11-27T15:12:14.363Z,5.20
2022-11-27T15:15:07.811Z,4.57
2022-11-27T15:20:45.113Z,3.57
2022-11-27T15:23:32.190Z,4.37
2022-11-27T15:26:35.739Z,5.27
2022-11-27T15:29:38.587Z,7.20
2022-11-27T15:32:26.889Z,6.67
2022-11-27T15:35:15.002Z,14.20
2022-11-27T15:38:09.191Z,44.77
2022-11-27T15:41:00.789Z,44.10
2022-11-27T15:43:45.910Z,41.17
2022-11-27T15:46:35.112Z,40.37
2022-11-27T15:49:22.182Z,36.83
2022-11-27T15:52:07.912Z,37.03
2022-11-27T15:54:55.589Z,39.83
2022-11-27T15:57:41.102Z,37.93
2022-11-27T16:00:26.758Z,30.40
2022-11-27T16:03:13.223Z,30.00
2022-11-27T16:06:07.503Z,30.77
2022-11-27T16:08:56.065Z,29.60
2022-11-27T16:11:41.907Z,29.20
2022-11-27T16:14:27.638Z,29.27
2022-11-27T16:17:13.591Z,28.10
2022-11-27T16:19:59.122Z,28.33
2022-11-27T16:22:44.480Z,30.17
2022-11-27T16:25:31.944Z,27.27
2022-11-27T16:28:17.695Z,27.13
2022-11-27T16:31:09.999Z,26.77
2022-11-27T16:33:55.561Z,28.20
2022-11-27T16:36:43.844Z,24.10
2022-11-27T16:39:29.629Z,25.07
2022-11-27T16:42:15.615Z,24.83
2022-11-27T16:45:00.693Z,24.70
2022-11-27T16:47:46.044Z,24.90
2022-11-27T16:50:31.896Z,23.13
2022-11-27T16:53:17.637Z,22.50
2022-11-27T16:56:03.196Z,22.73
2022-11-27T16:58:48.653Z,23.77
2022-11-27T17:01:36.146Z,20.83
2022-11-27T17:04:21.877Z,19.97
2022-11-27T17:07:07.135Z,21.70
2022-11-27T17:09:52.657Z,22.37
2022-11-27T17:12:37.780Z,16.83
2022-11-27T17:15:23.599Z,17.33
2022-11-27T17:18:09.508Z,17.40
2022-11-27T17:21:00.848Z,20.03
2022-11-27T17:23:46.950Z,13.77
2022-11-27T17:26:34.606Z,16.43
2022-11-27T17:29:23.179Z,14.93
2022-11-27T17:32:10.009Z,14.73
2022-11-27T17:34:56.233Z,15.23
2022-11-27T17:37:43.624Z,15.10
2022-11-27T17:40:30.636Z,14.43
2022-11-27T17:43:16.217Z,14.60
2022-11-27T17:46:02.361Z,14.90
2022-11-27T17:48:47.823Z,14.23
2022-11-27T17:51:35.643Z,16.00
2022-11-27T17:54:21.166Z,15.30
2022-11-27T17:57:06.835Z,15.90
2022-11-27T17:59:52.684Z,14.17
2022-11-27T18:02:38.517Z,14.03
2022-11-27T18:05:24.089Z,13.70
2022-11-27T18:08:09.934Z,15.33
2022-11-27T18:10:55.553Z,16.17
2022-11-27T18:13:41.862Z,17.40
2022-11-27T18:16:34.951Z,15.00
2022-11-27T18:19:20.767Z,13.87
2022-11-27T18:22:08.335Z,13.23
2022-11-27T18:24:53.727Z,14.07
2022-11-27T18:27:39.742Z,15.60
2022-11-27T18:30:25.936Z,16.37
2022-11-27T18:33:11.665Z,14.30
2022-11-27T18:35:57.231Z,15.03
2022-11-27T18:38:44.872Z,12.33
2022-11-27T18:41:30.545Z,12.77
2022-11-27T18:44:17.201Z,15.13
2022-11-27T18:47:04.376Z,13.13
2022-11-27T18:49:50.252Z,11.83
2022-11-27T18:52:38.382Z,11.40
2022-11-27T18:55:23.548Z,12.30
2022-11-27T18:58:08.825Z,11.83
2022-11-27T19:00:57.407Z,11.60
2022-11-27T19:03:44.331Z,11.30
2022-11-27T19:06:30.259Z,13.70
2022-11-27T19:09:16.027Z,12.17
2022-11-27T19:12:01.908Z,12.83
2022-11-27T19:14:47.271Z,11.53
2022-11-27T19:17:32.842Z,13.33
2022-11-27T19:20:19.569Z,11.80
2022-11-27T19:23:06.050Z,10.60
2022-11-27T19:25:53.208Z,10.37
2022-11-27T19:28:39.048Z,12.07
2022-11-27T19:31:27.754Z,10.93
2022-11-27T19:34:13.744Z,10.20
2022-11-27T19:36:59.329Z,12.33
2022-11-27T19:39:44.598Z,10.77
2022-11-27T19:42:32.387Z,10.17
2022-11-27T19:45:22.728Z,12.27
2022-11-27T19:48:08.003Z,11.83
2022-11-27T19:50:53.351Z,10.80
2022-11-27T19:53:39.370Z,11.87
2022-11-27T19:56:27.782Z,10.27
2022-11-27T19:59:15.212Z,10.53
2022-11-27T20:02:00.555Z,10.70
2022-11-27T20:04:47.360Z,12.93
2022-11-27T20:07:32.659Z,10.90
2022-11-27T20:10:18.875Z,11.43
2022-11-27T20:13:04.373Z,11.77
2022-11-27T20:15:49.814Z,12.13
2022-11-27T20:18:36.028Z,10.30
2022-11-27T20:21:24.780Z,13.50
2022-11-27T20:24:10.519Z,9.60
2022-11-27T20:26:56.203Z,11.80
2022-11-27T20:29:42.163Z,10.10
2022-11-27T20:32:27.904Z,10.93
2022-11-27T20:35:12.990Z,10.40
2022-11-27T20:37:59.373Z,11.67
2022-11-27T20:40:45.248Z,11.23
2022-11-27T20:43:30.554Z,10.07
2022-11-27T20:46:16.922Z,11.57
2022-11-27T20:49:03.475Z,12.23
2022-11-27T20:51:50.472Z,9.63
2022-11-27T20:54:38.684Z,10.23
2022-11-27T20:57:25.054Z,9.83
2022-11-27T21:00:11.237Z,9.97
2022-11-27T21:02:56.799Z,14.87
2022-11-27T21:05:44.005Z,10.70
2022-11-27T21:08:29.499Z,10.33
2022-11-27T21:11:25.369Z,10.87
2022-11-27T21:14:13.973Z,10.80
2022-11-27T21:17:04.566Z,10.93
2022-11-27T21:19:51.452Z,12.27
2022-11-27T21:22:37.146Z,10.27
2022-11-27T21:25:25.487Z,10.27
2022-11-27T21:28:10.971Z,9.93
2022-11-27T21:31:17.858Z,9.77
2022-11-27T21:34:04.575Z,10.03
2022-11-27T21:36:50.955Z,14.53
2022-11-27T21:39:38.477Z,12.20
2022-11-27T21:42:24.247Z,9.73
2022-11-27T21:45:10.388Z,11.17
2022-11-27T21:47:55.985Z,10.07
2022-11-27T21:50:41.695Z,10.47
2022-11-27T21:53:30.087Z,10.47
2022-11-27T21:56:18.743Z,11.03
2022-11-27T21:59:05.671Z,10.40
2022-11-27T22:01:51.739Z,10.20
2022-11-27T22:04:37.156Z,9.77
2022-11-27T22:07:22.545Z,10.23
2022-11-27T22:10:08.709Z,10.73
2022-11-27T22:12:54.151Z,10.60
2022-11-27T22:15:39.426Z,10.50
2022-11-27T22:18:24.726Z,10.73
2022-11-27T22:21:12.263Z,11.43
2022-11-27T22:23:58.079Z,11.27
2022-11-27T22:26:43.396Z,10.43
2022-11-27T22:29:28.937Z,11.63
2022-11-27T22:32:14.278Z,11.30
2022-11-27T22:34:59.425Z,11.57
2022-11-27T22:37:44.732Z,10.33
2022-11-27T22:40:29.938Z,10.67
2022-11-27T22:43:15.739Z,12.70
2022-11-27T22:46:07.944Z,11.33
2022-11-27T22:48:58.368Z,11.27
2022-11-27T22:51:44.154Z,11.10
2022-11-27T22:54:29.673Z,12.33
2022-11-27T22:57:15.153Z,12.97
2022-11-27T23:00:01.382Z,12.03
2022-11-27T23:02:48.555Z,12.07
2022-11-27T23:05:33.912Z,11.80
2022-11-27T23:08:19.140Z,12.27
2022-11-27T23:11:05.872Z,12.17
2022-11-27T23:13:56.686Z,11.73
2022-11-27T23:16:42.112Z,11.37
2022-11-27T23:19:27.342Z,13.70
2022-11-27T23:22:13.252Z,12.20
2022-11-27T23:24:58.459Z,12.20
2022-11-27T23:27:44.936Z,13.50
2022-11-27T23:30:30.484Z,12.47
2022-11-27T23:33:15.862Z,12.60
2022-11-27T23:36:02.306Z,14.30
2022-11-27T23:38:47.721Z,12.63
2022-11-27T23:41:33.387Z,12.07
2022-11-27T23:44:18.829Z,12.30
2022-11-27T23:47:04.304Z,13.80
2022-11-27T23:49:50.011Z,14.20
2022-11-27T23:52:35.371Z,12.80
2022-11-27T23:55:20.634Z,12.97
2022-11-27T23:58:05.867Z,14.27
